This is the latest recevied weather packets stored in our database for station/object KD7ECD. If no packets are shown the sender has not sent any weather packets the latest 1 day(s).
| Time | Temp. | Humidity | Pressure | Rain* | Wind** | Luminosity | Snow |
|---|---|---|---|---|---|---|---|
| 1778003458 | 11.67° C | 97% | 1018.5 hPa | 0 mm | 3.58 m/s, 199° | 195 W/m² | - |
| 1778002856 | 11.67° C | 97% | 1018.3 hPa | 0 mm | 2.24 m/s, 202° | 159 W/m² | - |
| 1778002256 | 11.67° C | 96% | 1018.3 hPa | 0 mm | 3.13 m/s, 190° | 164 W/m² | - |
| 1778001650 | 11.67° C | 96% | 1018.1 hPa | 0 mm | 1.34 m/s, 212° | 125 W/m² | - |
| 1778001048 | 11.67° C | 95% | 1017.9 hPa | 0 mm | 2.68 m/s, 220° | 94 W/m² | - |
| 1778000447 | 11.67° C | 94% | 1018.1 hPa | 0 mm | 2.24 m/s, 222° | 92 W/m² | - |
| 1777999844 | 11.11° C | 93% | 1017.9 hPa | 0 mm | 2.68 m/s, 196° | 81 W/m² | - |
| 1777999244 | 11.67° C | 92% | 1017.8 hPa | 0 mm | 2.24 m/s, 177° | 79 W/m² | - |
| 1777998645 | 11.67° C | 91% | 1018 hPa | 0 mm | 2.24 m/s, 199° | 56 W/m² | - |
| 1777998041 | 11.67° C | 90% | 1017.9 hPa | 0 mm | 2.24 m/s, 195° | 43 W/m² | - |
| 1777997441 | 11.67° C | 89% | 1017.6 hPa | 0 mm | 1.79 m/s, 199° | 44 W/m² | - |
| 1777996835 | 11.67° C | 88% | 1017.7 hPa | 0 mm | 2.68 m/s, 202° | 40 W/m² | - |
| 1777996234 | 11.67° C | 88% | 1018 hPa | 0 mm | 3.13 m/s, 210° | 33 W/m² | - |
| 1777995631 | 11.67° C | 88% | 1017.8 hPa | 0 mm | 1.79 m/s, 200° | 37 W/m² | - |
| 1777995032 | 11.67° C | 87% | 1017.7 hPa | 0 mm | 2.24 m/s, 197° | 36 W/m² | - |
| 1777994430 | 11.67° C | 88% | 1017.4 hPa | 0 mm | 1.34 m/s, 206° | 40 W/m² | - |
| 1777993828 | 11.67° C | 88% | 1017.5 hPa | 0 mm | 2.24 m/s, 213° | 47 W/m² | - |
| 1777993227 | 11.11° C | 88% | 1017.4 hPa | 0 mm | 2.24 m/s, 184° | 78 W/m² | - |
| 1777992621 | 11.11° C | 89% | 1017.4 hPa | 0 mm | 2.24 m/s, 192° | 62 W/m² | - |
| 1777992021 | 11.11° C | 89% | 1017.2 hPa | 0 mm | 2.24 m/s, 205° | 42 W/m² | - |
| 1777991416 | 11.11° C | 89% | 1017.3 hPa | 0 mm | 1.34 m/s, 188° | 35 W/m² | - |
| 1777990816 | 11.11° C | 90% | 1017 hPa | 0 mm | 1.79 m/s, 188° | 41 W/m² | - |
| 1777990216 | 10.56° C | 90% | 1017 hPa | 0 mm | 2.68 m/s, 178° | 45 W/m² | - |
| 1777989616 | 10.56° C | 92% | 1017 hPa | 0 mm | 2.24 m/s, 179° | 38 W/m² | - |
| 1777989014 | 10.56° C | 93% | 1017.2 hPa | 0 mm | 1.34 m/s, 173° | 19 W/m² | - |
* Rain latest hour (hover to see other rain measurements)
** Current wind speed in m/s (hover to see current wind gust speed)